sensor_id;sensor_type;location;lat;lon;timestamp;pressure;altitude;pressure_sealevel;temperature;humidity
55656;BME280;41530;52.382;5.270;2023-04-10T00:00:46;102313.81;;;19.87;45.47
55656;BME280;41530;52.382;5.270;2023-04-10T00:03:14;102307.63;;;19.87;45.28
55656;BME280;41530;52.382;5.270;2023-04-10T00:05:43;102305.94;;;19.86;45.37
55656;BME280;41530;52.382;5.270;2023-04-10T00:08:10;102297.22;;;19.84;45.33
55656;BME280;41530;52.382;5.270;2023-04-10T00:10:36;102298.03;;;19.84;45.20
55656;BME280;41530;52.382;5.270;2023-04-10T00:13:03;102292.00;;;19.82;45.35
55656;BME280;41530;52.382;5.270;2023-04-10T00:15:30;102291.16;;;19.82;45.17
55656;BME280;41530;52.382;5.270;2023-04-10T00:17:56;102283.16;;;19.82;45.17
55656;BME280;41530;52.382;5.270;2023-04-10T00:20:23;102282.31;;;19.81;45.05
55656;BME280;41530;52.382;5.270;2023-04-10T00:22:51;102275.28;;;19.80;45.09
55656;BME280;41530;52.382;5.270;2023-04-10T00:25:18;102263.03;;;19.78;45.13
55656;BME280;41530;52.382;5.270;2023-04-10T00:27:45;102258.66;;;19.77;44.92
55656;BME280;41530;52.382;5.270;2023-04-10T00:30:11;102253.31;;;19.77;44.87
55656;BME280;41530;52.382;5.270;2023-04-10T00:32:38;102256.13;;;19.75;44.97
55656;BME280;41530;52.382;5.270;2023-04-10T00:35:06;102244.59;;;19.75;44.88
55656;BME280;41530;52.382;5.270;2023-04-10T00:37:33;102243.75;;;19.74;44.76
55656;BME280;41530;52.382;5.270;2023-04-10T00:39:59;102247.38;;;19.73;44.84
55656;BME280;41530;52.382;5.270;2023-04-10T00:42:27;102245.69;;;19.72;44.85
55656;BME280;41530;52.382;5.270;2023-04-10T00:44:53;102242.19;;;19.72;44.93
55656;BME280;41530;52.382;5.270;2023-04-10T00:47:20;102239.66;;;19.70;44.68
55656;BME280;41530;52.382;5.270;2023-04-10T00:49:47;102237.00;;;19.70;44.71
55656;BME280;41530;52.382;5.270;2023-04-10T00:52:13;102231.78;;;19.69;44.68
55656;BME280;41530;52.382;5.270;2023-04-10T00:54:40;102226.56;;;19.67;44.75
55656;BME280;41530;52.382;5.270;2023-04-10T00:57:07;102226.56;;;19.67;44.65
55656;BME280;41530;52.382;5.270;2023-04-10T00:59:34;102227.56;;;19.66;44.74
55656;BME280;41530;52.382;5.270;2023-04-10T01:02:01;102237.38;;;19.66;44.71
55656;BME280;41530;52.382;5.270;2023-04-10T01:04:29;102229.50;;;19.64;44.89
55656;BME280;41530;52.382;5.270;2023-04-10T01:07:08;102236.66;;;19.64;44.48
55656;BME280;41530;52.382;5.270;2023-04-10T01:09:40;102237.75;;;19.61;44.89
55656;BME280;41530;52.382;5.270;2023-04-10T01:12:30;102226.25;;;19.61;44.36
55656;BME280;41530;52.382;5.270;2023-04-10T01:15:14;102217.38;;;19.60;44.48
55656;BME280;41530;52.382;5.270;2023-04-10T01:20:15;102209.66;;;19.57;44.47
55656;BME280;41530;52.382;5.270;2023-04-10T01:22:54;102209.50;;;19.58;44.35
55656;BME280;41530;52.382;5.270;2023-04-10T01:28:37;102205.31;;;19.56;44.40
55656;BME280;41530;52.382;5.270;2023-04-10T01:31:07;102201.78;;;19.55;44.50
55656;BME280;41530;52.382;5.270;2023-04-10T01:33:45;102185.31;;;19.50;44.47
55656;BME280;41530;52.382;5.270;2023-04-10T01:39:52;102172.13;;;19.38;44.32
55656;BME280;41530;52.382;5.270;2023-04-10T01:45:44;102170.19;;;19.40;44.62
55656;BME280;41530;52.382;5.270;2023-04-10T01:48:32;102149.78;;;19.29;44.21
55656;BME280;41530;52.382;5.270;2023-04-10T01:51:50;102184.69;;;19.47;44.39
55656;BME280;41530;52.382;5.270;2023-04-10T01:54:42;102155.66;;;19.33;44.46
55656;BME280;41530;52.382;5.270;2023-04-10T01:57:30;102173.44;;;19.43;44.27
55656;BME280;41530;52.382;5.270;2023-04-10T02:00:24;102145.28;;;19.30;44.57
55656;BME280;41530;52.382;5.270;2023-04-10T02:03:11;102150.31;;;19.33;44.34
55656;BME280;41530;52.382;5.270;2023-04-10T02:12:42;102147.94;;;19.30;44.24
55656;BME280;41530;52.382;5.270;2023-04-10T02:15:19;102136.81;;;19.25;44.50
55656;BME280;41530;52.382;5.270;2023-04-10T02:18:13;102131.47;;;19.25;44.46
55656;BME280;41530;52.382;5.270;2023-04-10T02:20:43;102137.53;;;19.27;44.53
55656;BME280;41530;52.382;5.270;2023-04-10T02:26:10;102123.97;;;19.18;44.43
55656;BME280;41530;52.382;5.270;2023-04-10T02:29:07;102138.63;;;19.24;44.55
55656;BME280;41530;52.382;5.270;2023-04-10T02:32:10;102133.56;;;19.21;44.34
55656;BME280;41530;52.382;5.270;2023-04-10T02:34:54;102136.34;;;19.19;44.54
55656;BME280;41530;52.382;5.270;2023-04-10T02:37:33;102145.53;;;19.27;44.76
55656;BME280;41530;52.382;5.270;2023-04-10T02:40:13;102119.91;;;19.14;44.73
55656;BME280;41530;52.382;5.270;2023-04-10T02:42:54;102131.13;;;19.18;44.77
55656;BME280;41530;52.382;5.270;2023-04-10T02:45:55;102123.44;;;19.15;44.49
55656;BME280;41530;52.382;5.270;2023-04-10T02:48:36;102132.41;;;19.14;44.70
55656;BME280;41530;52.382;5.270;2023-04-10T02:51:13;102131.69;;;19.12;44.58
55656;BME280;41530;52.382;5.270;2023-04-10T02:57:20;102153.91;;;19.22;44.22
55656;BME280;41530;52.382;5.270;2023-04-10T03:00:15;102148.97;;;19.17;44.72
55656;BME280;41530;52.382;5.270;2023-04-10T03:03:25;102139.56;;;19.13;44.16
55656;BME280;41530;52.382;5.270;2023-04-10T03:06:09;102151.50;;;19.19;44.61
55656;BME280;41530;52.382;5.270;2023-04-10T03:08:58;102122.38;;;19.06;44.71
55656;BME280;41530;52.382;5.270;2023-04-10T03:11:32;102140.53;;;19.12;44.48
55656;BME280;41530;52.382;5.270;2023-04-10T03:14:21;102129.41;;;19.07;44.39
55656;BME280;41530;52.382;5.270;2023-04-10T03:16:53;102139.09;;;19.08;44.56
55656;BME280;41530;52.382;5.270;2023-04-10T03:19:25;102136.69;;;19.05;44.52
55656;BME280;41530;52.382;5.270;2023-04-10T03:25:14;102142.72;;;19.07;44.54
55656;BME280;41530;52.382;5.270;2023-04-10T03:28:10;102128.13;;;19.02;44.43
55656;BME280;41530;52.382;5.270;2023-04-10T03:31:07;102149.13;;;19.16;44.19
55656;BME280;41530;52.382;5.270;2023-04-10T03:33:54;102131.94;;;19.09;44.38
55656;BME280;41530;52.382;5.270;2023-04-10T03:36:27;102118.28;;;19.02;44.63
55656;BME280;41530;52.382;5.270;2023-04-10T03:39:17;102123.50;;;19.04;44.51
55656;BME280;41530;52.382;5.270;2023-04-10T03:42:01;102109.81;;;18.97;44.62
55656;BME280;41530;52.382;5.270;2023-04-10T03:44:53;102096.88;;;18.93;44.33
55656;BME280;41530;52.382;5.270;2023-04-10T03:47:24;102094.06;;;18.94;44.81
55656;BME280;41530;52.382;5.270;2023-04-10T03:50:20;102111.81;;;19.05;44.38
55656;BME280;41530;52.382;5.270;2023-04-10T03:53:24;102103.38;;;19.00;44.28
55656;BME280;41530;52.382;5.270;2023-04-10T03:56:21;102094.41;;;19.01;44.34
55656;BME280;41530;52.382;5.270;2023-04-10T04:02:21;102097.66;;;19.04;44.24
55656;BME280;41530;52.382;5.270;2023-04-10T04:05:16;102093.69;;;18.99;44.47
55656;BME280;41530;52.382;5.270;2023-04-10T04:07:59;102074.69;;;18.92;44.49
55656;BME280;41530;52.382;5.270;2023-04-10T04:11:04;102086.09;;;18.94;44.44
55656;BME280;41530;52.382;5.270;2023-04-10T04:13:38;102085.94;;;18.96;44.32
55656;BME280;41530;52.382;5.270;2023-04-10T04:19:30;102089.72;;;18.93;44.43
55656;BME280;41530;52.382;5.270;2023-04-10T04:22:16;102072.81;;;18.83;44.30
55656;BME280;41530;52.382;5.270;2023-04-10T04:25:08;102080.19;;;18.91;44.42
55656;BME280;41530;52.382;5.270;2023-04-10T04:28:01;102071.47;;;18.89;44.42
55656;BME280;41530;52.382;5.270;2023-04-10T04:30:53;102059.75;;;18.80;44.39
55656;BME280;41530;52.382;5.270;2023-04-10T04:33:22;102070.50;;;18.90;44.50
55656;BME280;41530;52.382;5.270;2023-04-10T04:35:49;102069.19;;;18.84;44.57
55656;BME280;41530;52.382;5.270;2023-04-10T04:38:29;102061.78;;;18.88;44.31
55656;BME280;41530;52.382;5.270;2023-04-10T04:41:09;102052.47;;;18.82;44.58
55656;BME280;41530;52.382;5.270;2023-04-10T04:44:04;102073.72;;;18.93;44.17
55656;BME280;41530;52.382;5.270;2023-04-10T04:46:35;102057.41;;;18.86;44.38
55656;BME280;41530;52.382;5.270;2023-04-10T04:49:16;102050.91;;;18.79;44.23
55656;BME280;41530;52.382;5.270;2023-04-10T04:51:58;102070.34;;;18.91;44.18
55656;BME280;41530;52.382;5.270;2023-04-10T04:54:54;102066.50;;;18.84;44.03
55656;BME280;41530;52.382;5.270;2023-04-10T04:57:35;102063.38;;;18.79;44.52
55656;BME280;41530;52.382;5.270;2023-04-10T05:00:17;102056.53;;;18.76;43.95
55656;BME280;41530;52.382;5.270;2023-04-10T05:02:48;102057.06;;;18.80;44.00
55656;BME280;41530;52.382;5.270;2023-04-10T05:05:27;102051.19;;;18.76;44.28
55656;BME280;41530;52.382;5.270;2023-04-10T05:08:03;102042.59;;;18.73;44.12
55656;BME280;41530;52.382;5.270;2023-04-10T05:10:48;102050.22;;;18.77;43.88
55656;BME280;41530;52.382;5.270;2023-04-10T05:13:28;102063.25;;;18.80;43.92
55656;BME280;41530;52.382;5.270;2023-04-10T05:16:03;102038.97;;;18.74;44.15
55656;BME280;41530;52.382;5.270;2023-04-10T05:18:55;102047.22;;;18.71;44.12
55656;BME280;41530;52.382;5.270;2023-04-10T05:21:38;102048.91;;;18.72;44.08
55656;BME280;41530;52.382;5.270;2023-04-10T05:24:11;102028.81;;;18.68;44.14
55656;BME280;41530;52.382;5.270;2023-04-10T05:27:25;102050.47;;;18.74;43.67
55656;BME280;41530;52.382;5.270;2023-04-10T05:30:23;102052.03;;;18.77;43.95
55656;BME280;41530;52.382;5.270;2023-04-10T05:33:13;102040.91;;;18.72;44.05
55656;BME280;41530;52.382;5.270;2023-04-10T05:36:02;102044.88;;;18.77;44.01
55656;BME280;41530;52.382;5.270;2023-04-10T05:38:38;102065.53;;;18.85;43.77
55656;BME280;41530;52.382;5.270;2023-04-10T05:41:16;102034.13;;;18.68;43.69
55656;BME280;41530;52.382;5.270;2023-04-10T05:44:06;102052.41;;;18.72;43.81
55656;BME280;41530;52.382;5.270;2023-04-10T05:46:51;102046.63;;;18.67;43.94
55656;BME280;41530;52.382;5.270;2023-04-10T05:49:48;102043.09;;;18.67;43.78
55656;BME280;41530;52.382;5.270;2023-04-10T05:52:17;102036.91;;;18.66;44.17
55656;BME280;41530;52.382;5.270;2023-04-10T05:54:46;102039.88;;;18.63;44.08
55656;BME280;41530;52.382;5.270;2023-04-10T05:57:27;102053.69;;;18.78;44.10
55656;BME280;41530;52.382;5.270;2023-04-10T06:00:17;102035.38;;;18.64;44.15
55656;BME280;41530;52.382;5.270;2023-04-10T06:03:04;102024.56;;;18.65;44.16
55656;BME280;41530;52.382;5.270;2023-04-10T06:05:34;102041.50;;;18.75;44.25
55656;BME280;41530;52.382;5.270;2023-04-10T06:11:13;102021.28;;;18.73;44.32
55656;BME280;41530;52.382;5.270;2023-04-10T06:13:40;102043.63;;;18.81;44.29
55656;BME280;41530;52.382;5.270;2023-04-10T06:16:20;102008.13;;;18.60;44.45
55656;BME280;41530;52.382;5.270;2023-04-10T06:19:22;102015.47;;;18.68;43.98
55656;BME280;41530;52.382;5.270;2023-04-10T06:22:12;102010.13;;;18.68;44.45
55656;BME280;41530;52.382;5.270;2023-04-10T06:24:57;101991.31;;;18.60;44.07
55656;BME280;41530;52.382;5.270;2023-04-10T06:27:41;102000.75;;;18.64;44.08
55656;BME280;41530;52.382;5.270;2023-04-10T06:30:10;101998.63;;;18.67;44.33
55656;BME280;41530;52.382;5.270;2023-04-10T06:32:53;101981.50;;;18.60;44.11
55656;BME280;41530;52.382;5.270;2023-04-10T06:35:22;101987.25;;;18.65;44.14
55656;BME280;41530;52.382;5.270;2023-04-10T06:38:04;101976.03;;;18.62;44.55
55656;BME280;41530;52.382;5.270;2023-04-10T06:41:14;101977.44;;;18.66;43.86
55656;BME280;41530;52.382;5.270;2023-04-10T06:47:06;101950.56;;;18.58;43.99
55656;BME280;41530;52.382;5.270;2023-04-10T06:49:40;101964.41;;;18.63;44.17
55656;BME280;41530;52.382;5.270;2023-04-10T06:52:16;101946.22;;;18.57;44.18
55656;BME280;41530;52.382;5.270;2023-04-10T06:54:48;101942.50;;;18.59;44.07
55656;BME280;41530;52.382;5.270;2023-04-10T06:57:36;101933.50;;;18.60;43.57
55656;BME280;41530;52.382;5.270;2023-04-10T07:00:59;101932.81;;;18.58;44.01
55656;BME280;41530;52.382;5.270;2023-04-10T07:03:27;101946.03;;;18.69;44.22
55656;BME280;41530;52.382;5.270;2023-04-10T07:06:03;101931.44;;;18.64;43.77
55656;BME280;41530;52.382;5.270;2023-04-10T07:08:58;101942.78;;;18.66;43.78
55656;BME280;41530;52.382;5.270;2023-04-10T07:11:36;101950.84;;;18.75;44.09
55656;BME280;41530;52.382;5.270;2023-04-10T07:14:31;101946.25;;;18.77;43.71
55656;BME280;41530;52.382;5.270;2023-04-10T07:17:29;101916.72;;;18.69;44.48
55656;BME280;41530;52.382;5.270;2023-04-10T07:20:07;101914.75;;;18.71;44.87
55656;BME280;41530;52.382;5.270;2023-04-10T07:22:53;101904.22;;;18.70;44.83
55656;BME280;41530;52.382;5.270;2023-04-10T07:26:05;101905.66;;;18.74;44.94
55656;BME280;41530;52.382;5.270;2023-04-10T07:28:40;101893.44;;;18.71;44.89
55656;BME280;41530;52.382;5.270;2023-04-10T07:31:24;101880.38;;;18.68;44.76
55656;BME280;41530;52.382;5.270;2023-04-10T07:33:53;101906.81;;;18.81;44.79
55656;BME280;41530;52.382;5.270;2023-04-10T07:36:32;101893.59;;;18.79;44.40
55656;BME280;41530;52.382;5.270;2023-04-10T07:39:18;101901.53;;;18.91;44.03
55656;BME280;41530;52.382;5.270;2023-04-10T07:42:13;101872.72;;;18.84;43.71
55656;BME280;41530;52.382;5.270;2023-04-10T07:44:45;101886.78;;;18.96;43.42
55656;BME280;41530;52.382;5.270;2023-04-10T07:47:20;101872.47;;;18.97;43.25
55656;BME280;41530;52.382;5.270;2023-04-10T07:49:58;101894.81;;;19.06;43.07
55656;BME280;41530;52.382;5.270;2023-04-10T07:52:44;101868.38;;;18.93;42.86
55656;BME280;41530;52.382;5.270;2023-04-10T07:55:50;101847.88;;;18.84;42.82
55656;BME280;41530;52.382;5.270;2023-04-10T07:58:20;101858.16;;;18.89;42.90
55656;BME280;41530;52.382;5.270;2023-04-10T08:01:29;101842.56;;;18.84;43.29
55656;BME280;41530;52.382;5.270;2023-04-10T08:04:19;101838.19;;;18.83;43.16
55656;BME280;41530;52.382;5.270;2023-04-10T08:06:50;101855.91;;;18.94;43.15
55656;BME280;41530;52.382;5.270;2023-04-10T08:09:48;101845.09;;;18.85;43.41
55656;BME280;41530;52.382;5.270;2023-04-10T08:12:18;101846.78;;;18.86;43.19
55656;BME280;41530;52.382;5.270;2023-04-10T08:15:05;101844.81;;;18.89;43.10
55656;BME280;41530;52.382;5.270;2023-04-10T08:21:27;101863.50;;;18.98;42.00
55656;BME280;41530;52.382;5.270;2023-04-10T08:24:13;101831.50;;;18.89;42.14
55656;BME280;41530;52.382;5.270;2023-04-10T08:26:49;101828.81;;;18.89;42.79
55656;BME280;41530;52.382;5.270;2023-04-10T08:29:36;101844.84;;;18.98;43.10
55656;BME280;41530;52.382;5.270;2023-04-10T08:32:06;101833.31;;;18.98;42.91
55656;BME280;41530;52.382;5.270;2023-04-10T08:34:58;101803.28;;;18.86;43.11
55656;BME280;41530;52.382;5.270;2023-04-10T08:38:21;101812.97;;;18.97;43.13
55656;BME280;41530;52.382;5.270;2023-04-10T08:45:35;101788.81;;;18.89;43.22
55656;BME280;41530;52.382;5.270;2023-04-10T08:51:52;101812.97;;;19.06;42.87
55656;BME280;41530;52.382;5.270;2023-04-10T08:54:59;101806.94;;;19.04;42.59
55656;BME280;41530;52.382;5.270;2023-04-10T08:58:05;101780.25;;;18.85;42.93
55656;BME280;41530;52.382;5.270;2023-04-10T09:01:38;101790.78;;;18.86;42.51
55656;BME280;41530;52.382;5.270;2023-04-10T09:05:44;101781.50;;;18.81;43.10
55656;BME280;41530;52.382;5.270;2023-04-10T09:08:43;101780.13;;;18.86;43.42
55656;BME280;41530;52.382;5.270;2023-04-10T09:18:59;101759.91;;;18.84;44.14
55656;BME280;41530;52.382;5.270;2023-04-10T09:31:58;101768.22;;;19.00;43.86
55656;BME280;41530;52.382;5.270;2023-04-10T09:34:53;101765.53;;;19.00;43.72
55656;BME280;41530;52.382;5.270;2023-04-10T09:41:20;101742.94;;;18.95;44.26
55656;BME280;41530;52.382;5.270;2023-04-10T09:44:43;101708.41;;;18.83;43.89
55656;BME280;41530;52.382;5.270;2023-04-10T09:48:07;101738.03;;;19.00;43.76
55656;BME280;41530;52.382;5.270;2023-04-10T09:54:41;101709.69;;;18.89;44.21
55656;BME280;41530;52.382;5.270;2023-04-10T09:57:58;101693.13;;;18.85;43.86
55656;BME280;41530;52.382;5.270;2023-04-10T10:00:52;101700.25;;;18.95;43.65
55656;BME280;41530;52.382;5.270;2023-04-10T10:03:27;101700.25;;;18.95;43.81
55656;BME280;41530;52.382;5.270;2023-04-10T10:06:05;101681.19;;;18.90;44.27
55656;BME280;41530;52.382;5.270;2023-04-10T10:12:50;101694.38;;;19.10;44.27
55656;BME280;41530;52.382;5.270;2023-04-10T10:21:49;101653.09;;;19.05;43.96
55656;BME280;41530;52.382;5.270;2023-04-10T10:24:45;101673.16;;;19.18;44.28
55656;BME280;41530;52.382;5.270;2023-04-10T10:28:02;101635.56;;;19.02;44.63
55656;BME280;41530;52.382;5.270;2023-04-10T10:30:56;101638.34;;;19.10;44.44
55656;BME280;41530;52.382;5.270;2023-04-10T10:33:47;101625.59;;;19.04;44.58
55656;BME280;41530;52.382;5.270;2023-04-10T10:36:41;101620.66;;;19.09;44.40
55656;BME280;41530;52.382;5.270;2023-04-10T10:43:34;101610.00;;;19.09;44.18
55656;BME280;41530;52.382;5.270;2023-04-10T10:50:00;101627.09;;;19.26;44.32
55656;BME280;41530;52.382;5.270;2023-04-10T10:52:51;101622.34;;;19.30;44.63
55656;BME280;41530;52.382;5.270;2023-04-10T10:55:35;101586.28;;;19.16;44.74
55656;BME280;41530;52.382;5.270;2023-04-10T10:58:11;101573.22;;;19.13;44.74
55656;BME280;41530;52.382;5.270;2023-04-10T11:03:39;101565.63;;;19.18;45.29
55656;BME280;41530;52.382;5.270;2023-04-10T11:07:08;101574.97;;;19.32;45.32
55656;BME280;41530;52.382;5.270;2023-04-10T11:28:51;101546.13;;;19.45;46.15
55656;BME280;41530;52.382;5.270;2023-04-10T11:32:21;101522.06;;;19.27;46.88
55656;BME280;41530;52.382;5.270;2023-04-10T11:35:58;101513.94;;;19.29;46.97
55656;BME280;41530;52.382;5.270;2023-04-10T11:42:28;101489.91;;;19.29;47.25
55656;BME280;41530;52.382;5.270;2023-04-10T11:45:41;101511.16;;;19.48;47.47
55656;BME280;41530;52.382;5.270;2023-04-10T11:49:08;101477.81;;;19.34;47.44
55656;BME280;41530;52.382;5.270;2023-04-10T11:52:01;101473.31;;;19.35;47.38
55656;BME280;41530;52.382;5.270;2023-04-10T11:54:52;101473.00;;;19.38;47.50
55656;BME280;41530;52.382;5.270;2023-04-10T11:58:08;101502.06;;;19.50;47.81
55656;BME280;41530;52.382;5.270;2023-04-10T12:01:07;101462.50;;;19.36;47.67
55656;BME280;41530;52.382;5.270;2023-04-10T12:04:00;101480.84;;;19.49;47.72
55656;BME280;41530;52.382;5.270;2023-04-10T12:10:10;101447.72;;;19.42;48.59
55656;BME280;41530;52.382;5.270;2023-04-10T12:13:28;101435.38;;;19.41;47.87
55656;BME280;41530;52.382;5.270;2023-04-10T12:20:00;101415.00;;;19.40;48.37
55656;BME280;41530;52.382;5.270;2023-04-10T12:22:44;101430.00;;;19.50;48.26
55656;BME280;41530;52.382;5.270;2023-04-10T12:32:54;101386.03;;;19.45;48.77
55656;BME280;41530;52.382;5.270;2023-04-10T12:36:05;101401.03;;;19.55;48.68
55656;BME280;41530;52.382;5.270;2023-04-10T12:39:25;101388.41;;;19.48;48.81
55656;BME280;41530;52.382;5.270;2023-04-10T12:42:41;101386.00;;;19.54;48.89
55656;BME280;41530;52.382;5.270;2023-04-10T12:45:57;101358.97;;;19.40;48.73
55656;BME280;41530;52.382;5.270;2023-04-10T12:48:40;101352.94;;;19.38;48.28
55656;BME280;41530;52.382;5.270;2023-04-10T12:52:39;101358.00;;;19.41;48.32
55656;BME280;41530;52.382;5.270;2023-04-10T12:56:15;101350.50;;;19.44;48.56
55656;BME280;41530;52.382;5.270;2023-04-10T12:59:27;101327.25;;;19.37;48.53
55656;BME280;41530;52.382;5.270;2023-04-10T13:02:20;101313.91;;;19.37;48.25
55656;BME280;41530;52.382;5.270;2023-04-10T13:05:14;101333.63;;;19.53;48.67
55656;BME280;41530;52.382;5.270;2023-04-10T13:08:17;101314.59;;;19.39;48.29
55656;BME280;41530;52.382;5.270;2023-04-10T13:11:03;101297.53;;;19.32;48.64
55656;BME280;41530;52.382;5.270;2023-04-10T13:13:43;101308.59;;;19.37;48.50
55656;BME280;41530;52.382;5.270;2023-04-10T13:16:19;101311.50;;;19.43;48.96
55656;BME280;41530;52.382;5.270;2023-04-10T13:22:44;101303.41;;;19.35;48.62
55656;BME280;41530;52.382;5.270;2023-04-10T13:25:48;101332.25;;;19.49;49.25
55656;BME280;41530;52.382;5.270;2023-04-10T13:29:41;101310.13;;;19.39;49.03
55656;BME280;41530;52.382;5.270;2023-04-10T13:32:37;101297.75;;;19.38;48.94
55656;BME280;41530;52.382;5.270;2023-04-10T13:35:56;101313.41;;;19.51;49.00
55656;BME280;41530;52.382;5.270;2023-04-10T13:49:44;101274.16;;;19.43;49.09
55656;BME280;41530;52.382;5.270;2023-04-10T13:52:34;101273.13;;;19.44;49.53
55656;BME280;41530;52.382;5.270;2023-04-10T13:55:18;101260.72;;;19.35;48.49
55656;BME280;41530;52.382;5.270;2023-04-10T13:57:45;101264.91;;;19.38;48.87
55656;BME280;41530;52.382;5.270;2023-04-10T14:01:03;101232.84;;;19.30;49.46
55656;BME280;41530;52.382;5.270;2023-04-10T14:04:15;101230.00;;;19.31;49.91
55656;BME280;41530;52.382;5.270;2023-04-10T14:06:53;101242.97;;;19.44;49.23
55656;BME280;41530;52.382;5.270;2023-04-10T14:09:26;101213.00;;;19.32;49.16
55656;BME280;41530;52.382;5.270;2023-04-10T14:12:04;101210.03;;;19.35;49.22
55656;BME280;41530;52.382;5.270;2023-04-10T14:14:52;101191.50;;;19.34;49.13
55656;BME280;41530;52.382;5.270;2023-04-10T14:17:19;101210.59;;;19.47;49.54
55656;BME280;41530;52.382;5.270;2023-04-10T14:19:52;101183.34;;;19.35;49.34
55656;BME280;41530;52.382;5.270;2023-04-10T14:23:02;101189.53;;;19.36;49.68
55656;BME280;41530;52.382;5.270;2023-04-10T14:28:35;101212.44;;;19.46;49.53
55656;BME280;41530;52.382;5.270;2023-04-10T14:31:15;101199.88;;;19.39;49.41
55656;BME280;41530;52.382;5.270;2023-04-10T14:33:42;101196.06;;;19.41;49.65
55656;BME280;41530;52.382;5.270;2023-04-10T14:36:25;101195.53;;;19.38;49.81
55656;BME280;41530;52.382;5.270;2023-04-10T14:39:09;101204.91;;;19.42;49.45
55656;BME280;41530;52.382;5.270;2023-04-10T14:42:01;101198.50;;;19.35;49.34
55656;BME280;41530;52.382;5.270;2023-04-10T14:44:32;101205.91;;;19.41;49.10
55656;BME280;41530;52.382;5.270;2023-04-10T14:47:02;101193.03;;;19.36;49.55
55656;BME280;41530;52.382;5.270;2023-04-10T14:49:51;101215.09;;;19.46;50.13
55656;BME280;41530;52.382;5.270;2023-04-10T14:52:26;101182.50;;;19.35;49.81
55656;BME280;41530;52.382;5.270;2023-04-10T14:55:34;101186.75;;;19.45;50.08
55656;BME280;41530;52.382;5.270;2023-04-10T14:58:10;101196.28;;;19.48;49.82
55656;BME280;41530;52.382;5.270;2023-04-10T15:01:12;101173.66;;;19.34;50.08
55656;BME280;41530;52.382;5.270;2023-04-10T15:14:52;101140.78;;;19.26;49.05
55656;BME280;41530;52.382;5.270;2023-04-10T15:17:49;101140.47;;;19.29;49.19
55656;BME280;41530;52.382;5.270;2023-04-10T15:21:09;101175.41;;;19.43;49.73
55656;BME280;41530;52.382;5.270;2023-04-10T15:23:57;101148.13;;;19.32;49.45
55656;BME280;41530;52.382;5.270;2023-04-10T15:26:57;101155.97;;;19.33;49.84
55656;BME280;41530;52.382;5.270;2023-04-10T15:29:30;101129.09;;;19.27;50.15
55656;BME280;41530;52.382;5.270;2023-04-10T15:32:06;101140.31;;;19.30;49.63
55656;BME280;41530;52.382;5.270;2023-04-10T15:34:35;101145.16;;;19.35;49.55
55656;BME280;41530;52.382;5.270;2023-04-10T15:37:25;101158.50;;;19.35;49.92
55656;BME280;41530;52.382;5.270;2023-04-10T15:40:11;101149.66;;;19.34;50.06
55656;BME280;41530;52.382;5.270;2023-04-10T15:42:55;101152.69;;;19.39;49.82
55656;BME280;41530;52.382;5.270;2023-04-10T15:45:25;101139.13;;;19.33;49.46
55656;BME280;41530;52.382;5.270;2023-04-10T15:48:06;101154.22;;;19.42;50.11
55656;BME280;41530;52.382;5.270;2023-04-10T15:50:44;101118.75;;;19.23;49.82
55656;BME280;41530;52.382;5.270;2023-04-10T15:53:26;101131.63;;;19.28;49.93
55656;BME280;41530;52.382;5.270;2023-04-10T15:56:14;101130.28;;;19.32;49.86
55656;BME280;41530;52.382;5.270;2023-04-10T15:59:09;101113.78;;;19.29;49.94
55656;BME280;41530;52.382;5.270;2023-04-10T16:01:37;101119.47;;;19.34;49.72
55656;BME280;41530;52.382;5.270;2023-04-10T16:04:15;101104.09;;;19.28;49.60
55656;BME280;41530;52.382;5.270;2023-04-10T16:06:46;101110.13;;;19.30;49.60
55656;BME280;41530;52.382;5.270;2023-04-10T16:09:32;101136.00;;;19.37;49.75
55656;BME280;41530;52.382;5.270;2023-04-10T16:12:00;101119.28;;;19.27;49.83
55656;BME280;41530;52.382;5.270;2023-04-10T16:14:48;101102.91;;;19.22;49.56
55656;BME280;41530;52.382;5.270;2023-04-10T16:17:17;101115.28;;;19.31;49.91
55656;BME280;41530;52.382;5.270;2023-04-10T16:19:49;101119.81;;;19.31;50.34
55656;BME280;41530;52.382;5.270;2023-04-10T16:22:28;101108.06;;;19.23;50.52
55656;BME280;41530;52.382;5.270;2023-04-10T16:24:59;101123.47;;;19.30;50.50
55656;BME280;41530;52.382;5.270;2023-04-10T16:27:30;101132.13;;;19.32;50.28
55656;BME280;41530;52.382;5.270;2023-04-10T16:30:16;101109.44;;;19.28;50.32
55656;BME280;41530;52.382;5.270;2023-04-10T16:32:52;101122.81;;;19.36;50.48
55656;BME280;41530;52.382;5.270;2023-04-10T16:35:36;101104.78;;;19.30;50.24
55656;BME280;41530;52.382;5.270;2023-04-10T16:38:25;101111.13;;;19.29;50.54
55656;BME280;41530;52.382;5.270;2023-04-10T16:41:00;101120.84;;;19.38;50.14
55656;BME280;41530;52.382;5.270;2023-04-10T16:43:49;101088.19;;;19.18;50.47
55656;BME280;41530;52.382;5.270;2023-04-10T16:46:34;101092.53;;;19.19;50.54
55656;BME280;41530;52.382;5.270;2023-04-10T16:49:14;101129.31;;;19.33;50.92
55656;BME280;41530;52.382;5.270;2023-04-10T16:51:42;101102.44;;;19.27;50.31
55656;BME280;41530;52.382;5.270;2023-04-10T16:54:26;101095.13;;;19.29;49.85
55656;BME280;41530;52.382;5.270;2023-04-10T16:57:00;101086.72;;;19.23;50.05
55656;BME280;41530;52.382;5.270;2023-04-10T16:59:37;101067.03;;;19.16;50.36
55656;BME280;41530;52.382;5.270;2023-04-10T17:02:06;101083.44;;;19.30;49.94
55656;BME280;41530;52.382;5.270;2023-04-10T17:04:57;101094.59;;;19.25;50.09
55656;BME280;41530;52.382;5.270;2023-04-10T17:07:55;101082.25;;;19.24;50.20
55656;BME280;41530;52.382;5.270;2023-04-10T17:10:26;101062.34;;;19.18;49.99
55656;BME280;41530;52.382;5.270;2023-04-10T17:13:06;101058.00;;;19.17;50.35